sensor_id;sensor_type;location;lat;lon;timestamp;temperature;humidity
58447;DHT22;44240;51.840;7.258;2023-02-15T00:01:27;6.00;72.10
58447;DHT22;44240;51.840;7.258;2023-02-15T00:03:52;6.00;73.20
58447;DHT22;44240;51.840;7.258;2023-02-15T00:06:18;5.90;72.10
58447;DHT22;44240;51.840;7.258;2023-02-15T00:08:44;6.00;72.20
58447;DHT22;44240;51.840;7.258;2023-02-15T00:11:12;5.90;72.20
58447;DHT22;44240;51.840;7.258;2023-02-15T00:13:38;5.90;72.10
58447;DHT22;44240;51.840;7.258;2023-02-15T00:16:08;5.80;72.20
58447;DHT22;44240;51.840;7.258;2023-02-15T00:18:34;5.90;72.10
58447;DHT22;44240;51.840;7.258;2023-02-15T00:21:05;5.80;72.20
58447;DHT22;44240;51.840;7.258;2023-02-15T00:23:30;5.80;72.20
58447;DHT22;44240;51.840;7.258;2023-02-15T00:26:10;5.80;72.20
58447;DHT22;44240;51.840;7.258;2023-02-15T00:28:36;5.80;72.50
58447;DHT22;44240;51.840;7.258;2023-02-15T00:31:10;5.70;72.60
58447;DHT22;44240;51.840;7.258;2023-02-15T00:33:36;5.70;72.60
58447;DHT22;44240;51.840;7.258;2023-02-15T00:36:04;5.70;72.60
58447;DHT22;44240;51.840;7.258;2023-02-15T00:38:30;5.80;72.70
58447;DHT22;44240;51.840;7.258;2023-02-15T00:40:58;5.70;72.70
58447;DHT22;44240;51.840;7.258;2023-02-15T00:43:24;5.80;72.90
58447;DHT22;44240;51.840;7.258;2023-02-15T00:45:50;5.70;72.70
58447;DHT22;44240;51.840;7.258;2023-02-15T00:48:16;5.70;72.80
58447;DHT22;44240;51.840;7.258;2023-02-15T00:50:44;5.70;72.80
58447;DHT22;44240;51.840;7.258;2023-02-15T00:53:09;5.70;73.00
58447;DHT22;44240;51.840;7.258;2023-02-15T00:55:35;5.70;73.10
58447;DHT22;44240;51.840;7.258;2023-02-15T00:58:00;5.70;73.10
58447;DHT22;44240;51.840;7.258;2023-02-15T01:00:26;5.70;73.10
58447;DHT22;44240;51.840;7.258;2023-02-15T01:02:52;5.70;73.10
58447;DHT22;44240;51.840;7.258;2023-02-15T01:05:17;5.60;73.10
58447;DHT22;44240;51.840;7.258;2023-02-15T01:07:43;5.60;73.10
58447;DHT22;44240;51.840;7.258;2023-02-15T01:10:09;5.60;73.10
58447;DHT22;44240;51.840;7.258;2023-02-15T01:12:34;5.60;73.10
58447;DHT22;44240;51.840;7.258;2023-02-15T01:15:00;5.60;73.00
58447;DHT22;44240;51.840;7.258;2023-02-15T01:17:25;5.60;73.00
58447;DHT22;44240;51.840;7.258;2023-02-15T01:19:51;5.60;73.00
58447;DHT22;44240;51.840;7.258;2023-02-15T01:22:17;5.50;72.90
58447;DHT22;44240;51.840;7.258;2023-02-15T01:24:42;5.50;73.00
58447;DHT22;44240;51.840;7.258;2023-02-15T01:27:08;5.50;73.10
58447;DHT22;44240;51.840;7.258;2023-02-15T01:29:33;5.50;73.30
58447;DHT22;44240;51.840;7.258;2023-02-15T01:31:59;5.50;73.30
58447;DHT22;44240;51.840;7.258;2023-02-15T01:34:24;5.50;73.40
58447;DHT22;44240;51.840;7.258;2023-02-15T01:36:50;5.50;73.40
58447;DHT22;44240;51.840;7.258;2023-02-15T01:39:15;5.50;73.50
58447;DHT22;44240;51.840;7.258;2023-02-15T01:41:41;5.50;73.40
58447;DHT22;44240;51.840;7.258;2023-02-15T01:47:12;5.40;73.50
58447;DHT22;44240;51.840;7.258;2023-02-15T01:49:40;5.40;73.60
58447;DHT22;44240;51.840;7.258;2023-02-15T01:52:08;5.40;73.50
58447;DHT22;44240;51.840;7.258;2023-02-15T01:54:36;5.40;73.50
58447;DHT22;44240;51.840;7.258;2023-02-15T01:57:11;5.30;73.40
58447;DHT22;44240;51.840;7.258;2023-02-15T01:59:39;5.30;73.50
58447;DHT22;44240;51.840;7.258;2023-02-15T02:02:09;5.30;73.40
58447;DHT22;44240;51.840;7.258;2023-02-15T02:04:51;5.30;73.40
58447;DHT22;44240;51.840;7.258;2023-02-15T02:07:23;5.30;73.50
58447;DHT22;44240;51.840;7.258;2023-02-15T02:09:49;5.20;73.40
58447;DHT22;44240;51.840;7.258;2023-02-15T02:12:16;5.20;73.50
58447;DHT22;44240;51.840;7.258;2023-02-15T02:14:44;5.10;73.40
58447;DHT22;44240;51.840;7.258;2023-02-15T02:34:19;5.00;73.70
58447;DHT22;44240;51.840;7.258;2023-02-15T02:42:44;4.90;74.40
58447;DHT22;44240;51.840;7.258;2023-02-15T02:45:28;4.90;74.40
58447;DHT22;44240;51.840;7.258;2023-02-15T02:48:00;4.80;74.30
58447;DHT22;44240;51.840;7.258;2023-02-15T02:50:29;4.80;74.30
58447;DHT22;44240;51.840;7.258;2023-02-15T02:52:56;4.80;74.40
58447;DHT22;44240;51.840;7.258;2023-02-15T02:57:58;4.70;74.30
58447;DHT22;44240;51.840;7.258;2023-02-15T03:00:29;4.70;74.20
58447;DHT22;44240;51.840;7.258;2023-02-15T03:03:03;4.70;74.20
58447;DHT22;44240;51.840;7.258;2023-02-15T03:05:31;4.70;74.10
58447;DHT22;44240;51.840;7.258;2023-02-15T03:07:58;4.70;74.10
58447;DHT22;44240;51.840;7.258;2023-02-15T03:10:27;4.70;74.10
58447;DHT22;44240;51.840;7.258;2023-02-15T03:12:54;4.60;74.00
58447;DHT22;44240;51.840;7.258;2023-02-15T03:15:25;4.60;74.00
58447;DHT22;44240;51.840;7.258;2023-02-15T03:17:56;4.60;74.10
58447;DHT22;44240;51.840;7.258;2023-02-15T03:20:29;4.50;74.30
58447;DHT22;44240;51.840;7.258;2023-02-15T03:23:00;4.50;74.50
58447;DHT22;44240;51.840;7.258;2023-02-15T03:25:35;4.50;74.50
58447;DHT22;44240;51.840;7.258;2023-02-15T03:28:03;4.50;74.50
58447;DHT22;44240;51.840;7.258;2023-02-15T03:30:31;4.50;74.40
58447;DHT22;44240;51.840;7.258;2023-02-15T03:32:58;4.40;74.60
58447;DHT22;44240;51.840;7.258;2023-02-15T03:35:29;4.40;74.40
58447;DHT22;44240;51.840;7.258;2023-02-15T03:37:59;4.40;74.30
58447;DHT22;44240;51.840;7.258;2023-02-15T03:40:51;4.40;74.40
58447;DHT22;44240;51.840;7.258;2023-02-15T03:46:12;4.30;74.20
58447;DHT22;44240;51.840;7.258;2023-02-15T03:48:42;4.30;74.20
58447;DHT22;44240;51.840;7.258;2023-02-15T03:51:12;4.30;74.10
58447;DHT22;44240;51.840;7.258;2023-02-15T03:53:59;4.30;74.10
58447;DHT22;44240;51.840;7.258;2023-02-15T03:56:26;4.20;74.20
58447;DHT22;44240;51.840;7.258;2023-02-15T03:58:51;4.20;74.30
58447;DHT22;44240;51.840;7.258;2023-02-15T04:04:45;4.20;74.40
58447;DHT22;44240;51.840;7.258;2023-02-15T04:07:11;4.20;74.40
58447;DHT22;44240;51.840;7.258;2023-02-15T04:09:37;4.20;74.40
58447;DHT22;44240;51.840;7.258;2023-02-15T04:12:21;4.20;74.40
58447;DHT22;44240;51.840;7.258;2023-02-15T04:14:47;4.10;74.40
58447;DHT22;44240;51.840;7.258;2023-02-15T04:17:31;4.10;74.50
58447;DHT22;44240;51.840;7.258;2023-02-15T04:19:56;4.10;74.50
58447;DHT22;44240;51.840;7.258;2023-02-15T04:22:41;4.10;75.50
58447;DHT22;44240;51.840;7.258;2023-02-15T04:25:25;4.10;74.50
58447;DHT22;44240;51.840;7.258;2023-02-15T04:27:52;4.10;74.60
58447;DHT22;44240;51.840;7.258;2023-02-15T04:30:21;4.10;74.70
58447;DHT22;44240;51.840;7.258;2023-02-15T04:32:47;4.10;74.90
58447;DHT22;44240;51.840;7.258;2023-02-15T04:35:12;4.00;74.80
58447;DHT22;44240;51.840;7.258;2023-02-15T04:37:39;4.10;74.80
58447;DHT22;44240;51.840;7.258;2023-02-15T04:40:06;4.00;74.80
58447;DHT22;44240;51.840;7.258;2023-02-15T04:42:32;4.00;74.80
58447;DHT22;44240;51.840;7.258;2023-02-15T04:44:57;4.00;74.80
58447;DHT22;44240;51.840;7.258;2023-02-15T04:47:23;4.00;74.80
58447;DHT22;44240;51.840;7.258;2023-02-15T04:49:49;4.00;74.80
58447;DHT22;44240;51.840;7.258;2023-02-15T04:52:15;4.00;74.80
58447;DHT22;44240;51.840;7.258;2023-02-15T04:54:40;4.00;74.90
58447;DHT22;44240;51.840;7.258;2023-02-15T04:57:06;4.00;74.80
58447;DHT22;44240;51.840;7.258;2023-02-15T04:59:32;3.90;74.80
58447;DHT22;44240;51.840;7.258;2023-02-15T05:01:57;3.90;74.80
58447;DHT22;44240;51.840;7.258;2023-02-15T05:04:23;3.90;74.80
58447;DHT22;44240;51.840;7.258;2023-02-15T05:06:49;3.90;74.80
58447;DHT22;44240;51.840;7.258;2023-02-15T05:09:15;3.90;74.80
58447;DHT22;44240;51.840;7.258;2023-02-15T05:11:40;3.90;74.80
58447;DHT22;44240;51.840;7.258;2023-02-15T05:14:06;3.90;74.80
58447;DHT22;44240;51.840;7.258;2023-02-15T05:16:31;3.90;74.80
58447;DHT22;44240;51.840;7.258;2023-02-15T05:18:57;3.90;74.80
58447;DHT22;44240;51.840;7.258;2023-02-15T05:21:23;3.80;74.70
58447;DHT22;44240;51.840;7.258;2023-02-15T05:23:48;3.90;74.80
58447;DHT22;44240;51.840;7.258;2023-02-15T05:26:22;3.80;74.70
58447;DHT22;44240;51.840;7.258;2023-02-15T05:29:07;3.80;74.70
58447;DHT22;44240;51.840;7.258;2023-02-15T05:31:34;3.80;74.80
58447;DHT22;44240;51.840;7.258;2023-02-15T05:33:59;3.80;74.80
58447;DHT22;44240;51.840;7.258;2023-02-15T05:36:25;3.80;74.70
58447;DHT22;44240;51.840;7.258;2023-02-15T05:38:51;3.80;74.80
58447;DHT22;44240;51.840;7.258;2023-02-15T05:41:16;3.80;74.80
58447;DHT22;44240;51.840;7.258;2023-02-15T05:43:42;3.80;74.80
58447;DHT22;44240;51.840;7.258;2023-02-15T05:46:08;3.80;74.90
58447;DHT22;44240;51.840;7.258;2023-02-15T05:48:34;3.80;74.80
58447;DHT22;44240;51.840;7.258;2023-02-15T05:51:09;3.80;74.90
58447;DHT22;44240;51.840;7.258;2023-02-15T05:53:37;3.80;75.00
58447;DHT22;44240;51.840;7.258;2023-02-15T05:56:04;3.70;75.00
58447;DHT22;44240;51.840;7.258;2023-02-15T05:58:32;3.70;75.00
58447;DHT22;44240;51.840;7.258;2023-02-15T06:00:58;3.70;75.10
58447;DHT22;44240;51.840;7.258;2023-02-15T06:03:24;3.70;75.10
58447;DHT22;44240;51.840;7.258;2023-02-15T06:05:51;3.70;75.20
58447;DHT22;44240;51.840;7.258;2023-02-15T06:08:17;3.70;75.20
58447;DHT22;44240;51.840;7.258;2023-02-15T06:10:44;3.70;75.30
58447;DHT22;44240;51.840;7.258;2023-02-15T06:13:10;3.70;75.30
58447;DHT22;44240;51.840;7.258;2023-02-15T06:15:36;3.70;75.30
58447;DHT22;44240;51.840;7.258;2023-02-15T06:18:01;3.70;75.30
58447;DHT22;44240;51.840;7.258;2023-02-15T06:20:27;3.70;75.30
58447;DHT22;44240;51.840;7.258;2023-02-15T06:22:52;3.70;75.30
58447;DHT22;44240;51.840;7.258;2023-02-15T06:25:18;3.70;75.30
58447;DHT22;44240;51.840;7.258;2023-02-15T06:27:44;3.70;75.30
58447;DHT22;44240;51.840;7.258;2023-02-15T06:30:09;3.70;75.30
58447;DHT22;44240;51.840;7.258;2023-02-15T06:32:35;3.70;75.40
58447;DHT22;44240;51.840;7.258;2023-02-15T06:35:01;3.70;75.40
58447;DHT22;44240;51.840;7.258;2023-02-15T06:37:26;3.70;75.40
58447;DHT22;44240;51.840;7.258;2023-02-15T06:39:52;3.70;75.30
58447;DHT22;44240;51.840;7.258;2023-02-15T06:42:18;3.70;75.30
58447;DHT22;44240;51.840;7.258;2023-02-15T06:44:44;3.70;75.30
58447;DHT22;44240;51.840;7.258;2023-02-15T06:47:10;3.70;75.30
58447;DHT22;44240;51.840;7.258;2023-02-15T06:49:36;3.60;75.20
58447;DHT22;44240;51.840;7.258;2023-02-15T06:52:02;3.60;75.20
58447;DHT22;44240;51.840;7.258;2023-02-15T06:54:28;3.60;75.20
58447;DHT22;44240;51.840;7.258;2023-02-15T06:56:53;3.60;75.20
58447;DHT22;44240;51.840;7.258;2023-02-15T06:59:19;3.60;75.30
58447;DHT22;44240;51.840;7.258;2023-02-15T07:01:44;3.60;75.30
58447;DHT22;44240;51.840;7.258;2023-02-15T07:04:09;3.60;75.40
58447;DHT22;44240;51.840;7.258;2023-02-15T07:06:35;3.60;75.40
58447;DHT22;44240;51.840;7.258;2023-02-15T07:09:01;3.60;75.40
58447;DHT22;44240;51.840;7.258;2023-02-15T07:11:27;3.60;75.50
58447;DHT22;44240;51.840;7.258;2023-02-15T07:14:12;3.60;75.50
58447;DHT22;44240;51.840;7.258;2023-02-15T07:16:38;3.60;75.50
58447;DHT22;44240;51.840;7.258;2023-02-15T07:19:03;3.60;75.50
58447;DHT22;44240;51.840;7.258;2023-02-15T07:21:29;3.60;75.50
58447;DHT22;44240;51.840;7.258;2023-02-15T07:23:57;3.60;75.50
58447;DHT22;44240;51.840;7.258;2023-02-15T07:26:23;3.70;75.50
58447;DHT22;44240;51.840;7.258;2023-02-15T07:28:49;3.60;75.50
58447;DHT22;44240;51.840;7.258;2023-02-15T07:31:15;3.60;75.50
58447;DHT22;44240;51.840;7.258;2023-02-15T07:33:40;3.70;75.60
58447;DHT22;44240;51.840;7.258;2023-02-15T07:36:06;3.70;75.70
58447;DHT22;44240;51.840;7.258;2023-02-15T07:38:34;3.70;75.70
58447;DHT22;44240;51.840;7.258;2023-02-15T07:41:02;3.70;76.50
58447;DHT22;44240;51.840;7.258;2023-02-15T07:43:29;3.80;76.00
58447;DHT22;44240;51.840;7.258;2023-02-15T07:45:58;3.80;76.20
58447;DHT22;44240;51.840;7.258;2023-02-15T07:48:24;3.80;76.20
58447;DHT22;44240;51.840;7.258;2023-02-15T07:50:49;3.90;76.30
58447;DHT22;44240;51.840;7.258;2023-02-15T07:53:15;4.00;76.40
58447;DHT22;44240;51.840;7.258;2023-02-15T07:55:40;4.00;76.50
58447;DHT22;44240;51.840;7.258;2023-02-15T07:58:06;4.10;76.70
58447;DHT22;44240;51.840;7.258;2023-02-15T08:00:31;4.10;76.70
58447;DHT22;44240;51.840;7.258;2023-02-15T08:03:17;4.20;76.90
58447;DHT22;44240;51.840;7.258;2023-02-15T08:05:44;4.30;76.90
58447;DHT22;44240;51.840;7.258;2023-02-15T08:08:11;4.30;77.10
58447;DHT22;44240;51.840;7.258;2023-02-15T08:11:19;4.40;77.10
58447;DHT22;44240;51.840;7.258;2023-02-15T08:18:57;4.70;77.30
58447;DHT22;44240;51.840;7.258;2023-02-15T08:21:25;4.80;77.30
58447;DHT22;44240;51.840;7.258;2023-02-15T08:23:53;4.90;77.30
58447;DHT22;44240;51.840;7.258;2023-02-15T08:26:18;5.00;77.30
58447;DHT22;44240;51.840;7.258;2023-02-15T08:28:44;5.10;77.40
58447;DHT22;44240;51.840;7.258;2023-02-15T08:31:13;5.20;77.30
58447;DHT22;44240;51.840;7.258;2023-02-15T08:33:40;5.20;77.20
58447;DHT22;44240;51.840;7.258;2023-02-15T08:36:11;5.30;77.10
58447;DHT22;44240;51.840;7.258;2023-02-15T08:38:37;5.50;77.10
58447;DHT22;44240;51.840;7.258;2023-02-15T08:41:11;5.50;77.00
58447;DHT22;44240;51.840;7.258;2023-02-15T08:43:36;5.60;77.00
58447;DHT22;44240;51.840;7.258;2023-02-15T08:46:03;5.70;77.00
58447;DHT22;44240;51.840;7.258;2023-02-15T08:48:28;5.80;77.00
58447;DHT22;44240;51.840;7.258;2023-02-15T08:50:53;5.90;77.00
58447;DHT22;44240;51.840;7.258;2023-02-15T08:53:19;6.00;77.10
58447;DHT22;44240;51.840;7.258;2023-02-15T08:55:47;6.10;77.00
58447;DHT22;44240;51.840;7.258;2023-02-15T08:58:12;6.20;77.00
58447;DHT22;44240;51.840;7.258;2023-02-15T09:00:38;6.30;76.80
58447;DHT22;44240;51.840;7.258;2023-02-15T09:03:03;6.40;76.70
58447;DHT22;44240;51.840;7.258;2023-02-15T09:05:29;6.50;76.60
58447;DHT22;44240;51.840;7.258;2023-02-15T09:07:54;6.60;76.40
58447;DHT22;44240;51.840;7.258;2023-02-15T09:10:20;6.70;76.30
58447;DHT22;44240;51.840;7.258;2023-02-15T09:12:45;6.80;76.40
58447;DHT22;44240;51.840;7.258;2023-02-15T09:15:11;6.80;76.40
58447;DHT22;44240;51.840;7.258;2023-02-15T09:17:36;6.90;76.40
58447;DHT22;44240;51.840;7.258;2023-02-15T09:20:02;7.00;76.50
58447;DHT22;44240;51.840;7.258;2023-02-15T09:22:28;7.10;76.50
58447;DHT22;44240;51.840;7.258;2023-02-15T09:24:55;7.10;76.30
58447;DHT22;44240;51.840;7.258;2023-02-15T09:27:20;7.20;76.10
58447;DHT22;44240;51.840;7.258;2023-02-15T09:29:46;7.30;76.00
58447;DHT22;44240;51.840;7.258;2023-02-15T09:32:13;7.40;75.80
58447;DHT22;44240;51.840;7.258;2023-02-15T09:34:39;7.40;75.50
58447;DHT22;44240;51.840;7.258;2023-02-15T09:37:05;7.50;75.40
58447;DHT22;44240;51.840;7.258;2023-02-15T09:39:31;7.60;75.20
58447;DHT22;44240;51.840;7.258;2023-02-15T09:44:56;7.80;75.00
58447;DHT22;44240;51.840;7.258;2023-02-15T09:50:37;8.10;74.20
58447;DHT22;44240;51.840;7.258;2023-02-15T10:01:03;8.30;72.20
58447;DHT22;44240;51.840;7.258;2023-02-15T10:06:26;8.40;71.50
58447;DHT22;44240;51.840;7.258;2023-02-15T10:11:33;8.60;71.20
58447;DHT22;44240;51.840;7.258;2023-02-15T10:19:37;8.70;70.40
58447;DHT22;44240;51.840;7.258;2023-02-15T10:27:50;8.90;69.30
58447;DHT22;44240;51.840;7.258;2023-02-15T10:30:49;9.10;69.20
58447;DHT22;44240;51.840;7.258;2023-02-15T10:33:40;9.20;69.10
58447;DHT22;44240;51.840;7.258;2023-02-15T10:36:39;9.30;69.30
58447;DHT22;44240;51.840;7.258;2023-02-15T10:42:20;9.50;68.40
58447;DHT22;44240;51.840;7.258;2023-02-15T10:45:11;9.70;68.50
58447;DHT22;44240;51.840;7.258;2023-02-15T10:50:47;9.90;67.90
58447;DHT22;44240;51.840;7.258;2023-02-15T10:56:29;10.10;67.30
58447;DHT22;44240;51.840;7.258;2023-02-15T11:04:48;10.40;66.40
58447;DHT22;44240;51.840;7.258;2023-02-15T11:10:05;10.50;65.40
58447;DHT22;44240;51.840;7.258;2023-02-15T11:12:33;10.60;65.20
58447;DHT22;44240;51.840;7.258;2023-02-15T11:15:10;10.60;64.90
58447;DHT22;44240;51.840;7.258;2023-02-15T11:17:41;10.70;64.00
58447;DHT22;44240;51.840;7.258;2023-02-15T11:20:18;10.80;63.90
58447;DHT22;44240;51.840;7.258;2023-02-15T11:22:48;10.90;63.70
58447;DHT22;44240;51.840;7.258;2023-02-15T11:25:39;10.90;63.50
58447;DHT22;44240;51.840;7.258;2023-02-15T11:28:09;11.00;63.60
58447;DHT22;44240;51.840;7.258;2023-02-15T11:30:55;11.10;63.40
58447;DHT22;44240;51.840;7.258;2023-02-15T11:33:26;11.30;63.40
58447;DHT22;44240;51.840;7.258;2023-02-15T11:38:28;11.40;62.20
58447;DHT22;44240;51.840;7.258;2023-02-15T11:41:00;11.50;62.50
58447;DHT22;44240;51.840;7.258;2023-02-15T11:43:35;11.60;62.70
58447;DHT22;44240;51.840;7.258;2023-02-15T11:46:01;11.70;62.90
58447;DHT22;44240;51.840;7.258;2023-02-15T11:48:30;11.80;61.90
58447;DHT22;44240;51.840;7.258;2023-02-15T11:50:56;11.80;61.30
58447;DHT22;44240;51.840;7.258;2023-02-15T11:53:23;11.90;61.80
58447;DHT22;44240;51.840;7.258;2023-02-15T11:55:53;12.00;61.80
58447;DHT22;44240;51.840;7.258;2023-02-15T11:58:32;12.10;61.60
58447;DHT22;44240;51.840;7.258;2023-02-15T12:03:53;12.20;61.20
58447;DHT22;44240;51.840;7.258;2023-02-15T12:06:27;12.30;61.30
58447;DHT22;44240;51.840;7.258;2023-02-15T12:09:09;12.40;61.40
58447;DHT22;44240;51.840;7.258;2023-02-15T12:11:39;12.40;60.90
58447;DHT22;44240;51.840;7.258;2023-02-15T12:14:10;12.50;60.50
58447;DHT22;44240;51.840;7.258;2023-02-15T12:16:53;12.50;60.40
58447;DHT22;44240;51.840;7.258;2023-02-15T12:19:40;12.60;60.10
58447;DHT22;44240;51.840;7.258;2023-02-15T12:22:08;12.70;59.80
58447;DHT22;44240;51.840;7.258;2023-02-15T12:24:47;12.70;59.70
58447;DHT22;44240;51.840;7.258;2023-02-15T12:27:19;12.80;58.70
58447;DHT22;44240;51.840;7.258;2023-02-15T12:29:53;12.90;58.70
58447;DHT22;44240;51.840;7.258;2023-02-15T12:32:26;12.90;58.20
58447;DHT22;44240;51.840;7.258;2023-02-15T12:34:59;13.00;57.80
58447;DHT22;44240;51.840;7.258;2023-02-15T12:37:28;13.00;58.30
58447;DHT22;44240;51.840;7.258;2023-02-15T12:39:59;13.10;57.70
58447;DHT22;44240;51.840;7.258;2023-02-15T12:42:26;13.20;57.30
58447;DHT22;44240;51.840;7.258;2023-02-15T12:45:02;13.30;57.40
58447;DHT22;44240;51.840;7.258;2023-02-15T12:47:29;13.40;57.30
58447;DHT22;44240;51.840;7.258;2023-02-15T12:52:34;13.60;57.00
58447;DHT22;44240;51.840;7.258;2023-02-15T12:55:21;13.70;57.30
58447;DHT22;44240;51.840;7.258;2023-02-15T12:57:47;13.80;56.50
58447;DHT22;44240;51.840;7.258;2023-02-15T13:02:50;13.90;56.00
58447;DHT22;44240;51.840;7.258;2023-02-15T13:05:42;14.00;55.70
58447;DHT22;44240;51.840;7.258;2023-02-15T13:08:15;14.10;55.70
58447;DHT22;44240;51.840;7.258;2023-02-15T13:10:53;14.10;55.10
58447;DHT22;44240;51.840;7.258;2023-02-15T13:13:22;14.20;54.60
58447;DHT22;44240;51.840;7.258;2023-02-15T13:15:51;14.30;54.60
58447;DHT22;44240;51.840;7.258;2023-02-15T13:18:32;14.40;54.80
58447;DHT22;44240;51.840;7.258;2023-02-15T13:21:21;14.50;54.60
58447;DHT22;44240;51.840;7.258;2023-02-15T13:24:25;14.60;53.10
58447;DHT22;44240;51.840;7.258;2023-02-15T13:26:54;14.70;53.30
58447;DHT22;44240;51.840;7.258;2023-02-15T13:29:27;14.70;53.00
58447;DHT22;44240;51.840;7.258;2023-02-15T13:31:54;14.80;52.70
58447;DHT22;44240;51.840;7.258;2023-02-15T13:34:36;14.90;52.90
58447;DHT22;44240;51.840;7.258;2023-02-15T13:39:57;15.10;52.20
58447;DHT22;44240;51.840;7.258;2023-02-15T13:42:32;15.10;52.40
58447;DHT22;44240;51.840;7.258;2023-02-15T13:45:08;15.20;52.40
58447;DHT22;44240;51.840;7.258;2023-02-15T13:48:04;15.20;52.40
58447;DHT22;44240;51.840;7.258;2023-02-15T13:56:27;15.60;51.50
58447;DHT22;44240;51.840;7.258;2023-02-15T14:05:21;16.40;50.30
58447;DHT22;44240;51.840;7.258;2023-02-15T14:07:55;16.90;48.40
58447;DHT22;44240;51.840;7.258;2023-02-15T14:21:42;18.80;43.50
58447;DHT22;44240;51.840;7.258;2023-02-15T14:24:18;18.60;42.80
58447;DHT22;44240;51.840;7.258;2023-02-15T14:30:00;18.50;44.50
58447;DHT22;44240;51.840;7.258;2023-02-15T14:32:39;18.50;42.50
58447;DHT22;44240;51.840;7.258;2023-02-15T14:35:15;18.50;44.20
58447;DHT22;44240;51.840;7.258;2023-02-15T14:37:55;18.40;43.50
58447;DHT22;44240;51.840;7.258;2023-02-15T14:40:39;18.60;43.30
58447;DHT22;44240;51.840;7.258;2023-02-15T14:43:49;18.60;41.90
58447;DHT22;44240;51.840;7.258;2023-02-15T14:46:55;18.30;42.20
58447;DHT22;44240;51.840;7.258;2023-02-15T14:49:26;18.20;43.30
58447;DHT22;44240;51.840;7.258;2023-02-15T14:52:11;18.20;42.90
58447;DHT22;44240;51.840;7.258;2023-02-15T15:05:11;17.20;43.90
58447;DHT22;44240;51.840;7.258;2023-02-15T15:07:54;16.90;45.60
58447;DHT22;44240;51.840;7.258;2023-02-15T15:12:50;16.50;45.40
58447;DHT22;44240;51.840;7.258;2023-02-15T15:18:07;16.30;45.60
58447;DHT22;44240;51.840;7.258;2023-02-15T15:20:50;16.20;45.90
58447;DHT22;44240;51.840;7.258;2023-02-15T15:25:56;15.90;47.60
58447;DHT22;44240;51.840;7.258;2023-02-15T15:31:16;15.80;48.30
58447;DHT22;44240;51.840;7.258;2023-02-15T15:36:46;15.50;48.80
58447;DHT22;44240;51.840;7.258;2023-02-15T15:42:32;15.40;49.10
58447;DHT22;44240;51.840;7.258;2023-02-15T15:48:08;15.20;48.90
58447;DHT22;44240;51.840;7.258;2023-02-15T15:50:39;15.10;49.40
58447;DHT22;44240;51.840;7.258;2023-02-15T15:53:06;15.10;49.60
58447;DHT22;44240;51.840;7.258;2023-02-15T15:55:41;15.00;49.90
58447;DHT22;44240;51.840;7.258;2023-02-15T15:58:08;14.90;50.10
58447;DHT22;44240;51.840;7.258;2023-02-15T16:03:23;14.80;50.20
58447;DHT22;44240;51.840;7.258;2023-02-15T16:05:49;14.70;50.20
58447;DHT22;44240;51.840;7.258;2023-02-15T16:10:53;14.40;50.40
58447;DHT22;44240;51.840;7.258;2023-02-15T16:13:18;14.30;50.30
58447;DHT22;44240;51.840;7.258;2023-02-15T16:15:52;14.20;50.40
58447;DHT22;44240;51.840;7.258;2023-02-15T16:18:21;14.20;50.60
58447;DHT22;44240;51.840;7.258;2023-02-15T16:21:01;14.10;50.50
58447;DHT22;44240;51.840;7.258;2023-02-15T16:24:03;14.00;50.70
58447;DHT22;44240;51.840;7.258;2023-02-15T16:29:33;13.80;50.90
58447;DHT22;44240;51.840;7.258;2023-02-15T16:32:01;13.60;51.00
58447;DHT22;44240;51.840;7.258;2023-02-15T16:34:26;13.50;51.10
58447;DHT22;44240;51.840;7.258;2023-02-15T16:37:15;13.50;51.20
58447;DHT22;44240;51.840;7.258;2023-02-15T16:39:43;13.40;50.90
58447;DHT22;44240;51.840;7.258;2023-02-15T16:42:11;13.20;51.00
58447;DHT22;44240;51.840;7.258;2023-02-15T16:44:37;13.20;51.40
58447;DHT22;44240;51.840;7.258;2023-02-15T16:47:03;13.10;51.70
58447;DHT22;44240;51.840;7.258;2023-02-15T16:49:32;13.00;51.90
58447;DHT22;44240;51.840;7.258;2023-02-15T16:52:02;13.00;52.10
58447;DHT22;44240;51.840;7.258;2023-02-15T16:54:31;12.90;52.10
58447;DHT22;44240;51.840;7.258;2023-02-15T16:56:57;12.80;52.30
58447;DHT22;44240;51.840;7.258;2023-02-15T16:59:41;12.70;52.30
58447;DHT22;44240;51.840;7.258;2023-02-15T17:02:16;12.70;52.50
58447;DHT22;44240;51.840;7.258;2023-02-15T17:04:43;12.60;52.80
58447;DHT22;44240;51.840;7.258;2023-02-15T17:07:19;12.50;52.90
58447;DHT22;44240;51.840;7.258;2023-02-15T17:09:57;12.50;53.40
58447;DHT22;44240;51.840;7.258;2023-02-15T17:12:43;12.40;53.20
58447;DHT22;44240;51.840;7.258;2023-02-15T17:15:29;12.40;53.20
58447;DHT22;44240;51.840;7.258;2023-02-15T17:17:59;12.30;53.30
58447;DHT22;44240;51.840;7.258;2023-02-15T17:20:26;12.20;53.20
58447;DHT22;44240;51.840;7.258;2023-02-15T17:22:52;12.10;53.70
58447;DHT22;44240;51.840;7.258;2023-02-15T17:25:23;12.10;53.90
58447;DHT22;44240;51.840;7.258;2023-02-15T17:27:54;12.00;53.70
58447;DHT22;44240;51.840;7.258;2023-02-15T17:30:31;12.00;53.70
58447;DHT22;44240;51.840;7.258;2023-02-15T17:33:02;11.90;53.70
58447;DHT22;44240;51.840;7.258;2023-02-15T17:35:29;11.90;53.70
58447;DHT22;44240;51.840;7.258;2023-02-15T17:38:17;11.80;53.60
58447;DHT22;44240;51.840;7.258;2023-02-15T17:40:43;11.80;53.50
58447;DHT22;44240;51.840;7.258;2023-02-15T17:43:08;11.70;53.60
58447;DHT22;44240;51.840;7.258;2023-02-15T17:45:40;11.70;53.80
58447;DHT22;44240;51.840;7.258;2023-02-15T17:48:18;11.70;53.70
58447;DHT22;44240;51.840;7.258;2023-02-15T17:50:45;11.70;53.60
58447;DHT22;44240;51.840;7.258;2023-02-15T17:53:11;11.60;53.60
58447;DHT22;44240;51.840;7.258;2023-02-15T17:55:38;11.60;53.50
58447;DHT22;44240;51.840;7.258;2023-02-15T17:58:06;11.60;54.70
58447;DHT22;44240;51.840;7.258;2023-02-15T18:00:35;11.60;53.80
58447;DHT22;44240;51.840;7.258;2023-02-15T18:03:20;11.60;53.90
58447;DHT22;44240;51.840;7.258;2023-02-15T18:06:05;11.50;53.90
58447;DHT22;44240;51.840;7.258;2023-02-15T18:08:49;11.50;53.90
58447;DHT22;44240;51.840;7.258;2023-02-15T18:11:33;11.40;54.10
58447;DHT22;44240;51.840;7.258;2023-02-15T18:14:06;11.40;54.30
58447;DHT22;44240;51.840;7.258;2023-02-15T18:16:38;11.30;54.70
58447;DHT22;44240;51.840;7.258;2023-02-15T18:19:12;11.20;54.70
58447;DHT22;44240;51.840;7.258;2023-02-15T18:21:38;11.20;55.10
58447;DHT22;44240;51.840;7.258;2023-02-15T18:24:04;11.10;55.00
58447;DHT22;44240;51.840;7.258;2023-02-15T18:26:29;11.00;55.00
58447;DHT22;44240;51.840;7.258;2023-02-15T18:28:55;11.00;55.00
58447;DHT22;44240;51.840;7.258;2023-02-15T18:31:22;10.90;55.30
58447;DHT22;44240;51.840;7.258;2023-02-15T18:33:55;10.90;55.30
58447;DHT22;44240;51.840;7.258;2023-02-15T18:36:26;10.90;55.40
58447;DHT22;44240;51.840;7.258;2023-02-15T18:38:56;10.90;55.40
58447;DHT22;44240;51.840;7.258;2023-02-15T18:41:22;10.90;55.20
58447;DHT22;44240;51.840;7.258;2023-02-15T18:43:48;10.90;55.00
58447;DHT22;44240;51.840;7.258;2023-02-15T18:46:15;10.90;55.00
58447;DHT22;44240;51.840;7.258;2023-02-15T18:48:41;10.90;55.00